KONT/ONT METAR and TAF weather

Enter ICAO airport designator
Station Type Date Time Source
KONT METAR 2019/04/23 04:53 UTC NOAA

KONT 230453Z 24008KT 10SM FEW120 19/13 A2997 RMK AO2 SLP141 T01890128 $


Station Type Date Time Source
KONT Decoded METAR 2019/04/23 04:53 UTC NOAA

ONTARIO INTERNATIONAL AIRPORT, CA, United States (KONT) 34-03N 117-35W 275M
Apr 23, 2019 - 12:53 AM EDT / 2019.04.23 0453 UTC
Wind: from the WSW (240 degrees) at 9 MPH (8 KT):0
Visibility: 10 mile(s):0
Sky conditions: mostly clear
Temperature: 66.0 F (18.9 C)
Dew Point: 55.0 F (12.8 C)
Relative Humidity: 67%
Pressure (altimeter): 29.97 in. Hg (1014 hPa)
ob: KONT 230453Z 24008KT 10SM FEW120 19/13 A2997 RMK AO2 SLP141 T01890128
cycle: 5

Station Type Date Time Source
KONT TAF 2019/04/22 18:33 UTC NOAA

KONT 221729Z 2218/2324 25007KT P6SM SKC
FM222000 27012G19KT P6SM SKC
FM230300 VRB04KT P6SM SCT250
FM232000 26010G21KT P6SM FEW250

Example: see airport list